Impacts TAF Board
For situational awareness. Not to be used for flight planning purposes.
IDs:

KMCO - Orlando Intl, FL, US

Issued at 1124 UTC 13 Dec 2018
Updated at 1244 UTC 13 Dec 2018
Potential Impact None Slight Moderate High
Time<<14/01Z 14/02Z 14/03Z 14/04Z 14/05Z 14/06Z 14/07Z 14/08Z 14/09Z 14/10Z 14/11Z 14/12Z 14/13Z>>
Type PRVL PRVL PRVL PRVL PRVL PRVL PRVL PRVL PRVL PRVL PRVL PRVL PRVL
VIS >6 >6 >6 >6 >6 >6 >6 >6 >6 >6 >6 >6 >6
CIG 120 120 120 120 120 100 100 100 100 100 100 100 100
Cover BKN BKN BKN BKN BKN BKN BKN BKN BKN BKN BKN BKN BKN
FltCat VFR VFR VFR VFR VFR VFR VFR VFR VFR VFR VFR VFR VFR
WX -- -- -- -- -- -- -- -- -- -- -- -- --
WDir 130 130 130 130 130 150 150 150 150 150 150 150 150
WSpd 6 6 6 6 6 7 7 7 7 7 7 7 7
WGst -- -- -- -- -- -- -- -- -- -- -- -- --
Raw TAF
KMCO 131124Z 1312/1418 36005KT P6SM BKN070 OVC250
  FM131400 07007KT P6SM BKN050 BKN250
  FM131800 12009KT P6SM BKN045 BKN200
  FM140000 13006KT P6SM SCT040 BKN120
  FM140600 15007KT P6SM SCT025 BKN100


METAR Board
Radar Display
Forecast Discussion
For situational awareness. Not to be used for flight planning purposes.